Garber, Oklahoma
Current Conditions -  °F | °C
As of 5:35 AM on Friday 31 Oct 2014 (Local Time) from KWDG Reporting Station
NA  
Wind Chill: 37°   Ceiling: NA
Heat Index: 45°   Visibility: 10mi
Dew Point: 37°   Wind: 16mph
Humidity: 76%   Direction: 350°N
Pressure: 30.36"   Gusts: NA
Location:  36.44°N, 97.59°W
Report Text: KWDG 311035Z AUTO 35014KT 10SM 07/03 A3036 RMK AO2
Loading
Personal Weather Stations






























Interactive Weather Map
Tropical Storm Tracking
New forecast layout! Learn more

10-Day Weather Forecast

Advertisements
Track Severe Weather on mobile